createdAt,value
2023-04-03T00:01:40.635Z,4.55
2023-04-03T00:07:02.853Z,4.44
2023-04-03T00:12:25.132Z,4.74
2023-04-03T00:17:49.549Z,4.68
2023-04-03T00:23:12.134Z,4.56
2023-04-03T00:28:34.153Z,4.67
2023-04-03T00:33:56.678Z,4.67
2023-04-03T00:39:18.972Z,4.76
2023-04-03T00:44:40.940Z,4.71
2023-04-03T00:50:03.864Z,4.69
2023-04-03T00:55:26.715Z,4.63
2023-04-03T01:00:58.795Z,4.70
2023-04-03T01:06:27.955Z,4.67
2023-04-03T01:11:53.154Z,4.66
2023-04-03T01:17:31.458Z,4.67
2023-04-03T01:23:09.170Z,4.58
2023-04-03T01:28:37.715Z,4.50
2023-04-03T01:34:00.836Z,4.47
2023-04-03T01:39:25.210Z,4.59
2023-04-03T01:44:47.745Z,4.41
2023-04-03T01:50:10.207Z,4.61
2023-04-03T01:55:33.024Z,4.57
2023-04-03T02:00:55.510Z,4.69
2023-04-03T02:06:17.585Z,4.67
2023-04-03T02:11:39.789Z,4.62
2023-04-03T02:17:06.682Z,4.66
2023-04-03T02:22:31.756Z,4.70
2023-04-03T02:27:56.654Z,4.67
2023-04-03T02:33:18.310Z,4.56
2023-04-03T02:38:43.232Z,4.60
2023-04-03T02:44:07.867Z,4.66
2023-04-03T02:49:30.309Z,4.61
2023-04-03T02:54:52.411Z,4.58
2023-04-03T03:00:15.912Z,4.53
2023-04-03T03:05:38.151Z,4.47
2023-04-03T03:11:02.397Z,4.52
2023-04-03T03:16:24.922Z,4.51
2023-04-03T03:21:47.416Z,4.43
2023-04-03T03:27:09.835Z,4.52
2023-04-03T03:32:29.912Z,4.61
2023-04-03T03:37:51.961Z,4.69
2023-04-03T03:43:14.036Z,4.80
2023-04-03T03:48:36.304Z,4.82
2023-04-03T03:53:58.331Z,4.89
2023-04-03T03:59:20.219Z,4.99
2023-04-03T04:04:43.420Z,4.95
2023-04-03T04:10:06.921Z,5.05
2023-04-03T04:15:29.713Z,5.05
2023-04-03T04:20:52.982Z,5.12
2023-04-03T04:26:15.091Z,5.20
2023-04-03T04:31:37.834Z,5.18
2023-04-03T04:37:03.243Z,5.30
2023-04-03T04:42:26.548Z,5.37
2023-04-03T04:47:49.199Z,5.55
2023-04-03T04:53:11.492Z,5.61
2023-04-03T04:58:34.719Z,5.73
2023-04-03T05:03:57.786Z,5.94
2023-04-03T05:09:21.778Z,6.15
2023-04-03T05:14:45.842Z,6.09
2023-04-03T05:20:09.014Z,6.20
2023-04-03T05:25:34.980Z,6.23
2023-04-03T05:30:59.319Z,6.32
2023-04-03T05:36:27.765Z,6.45
2023-04-03T05:41:54.589Z,6.40
2023-04-03T05:47:18.738Z,6.50
2023-04-03T05:52:49.100Z,6.68
2023-04-03T05:58:14.291Z,6.73
2023-04-03T06:03:39.508Z,6.85
2023-04-03T06:09:04.057Z,6.93
2023-04-03T06:14:26.823Z,7.17
2023-04-03T06:19:48.909Z,7.27
2023-04-03T06:25:11.684Z,7.37
2023-04-03T06:30:34.685Z,7.27
2023-04-03T06:36:00.256Z,7.34
2023-04-03T06:41:22.821Z,7.48
2023-04-03T06:46:46.621Z,7.54
2023-04-03T06:52:09.173Z,7.74
2023-04-03T06:57:31.722Z,8.00
2023-04-03T07:02:54.251Z,8.26
2023-04-03T07:08:16.954Z,8.30
2023-04-03T07:13:40.209Z,8.34
2023-04-03T07:19:03.246Z,8.38
2023-04-03T07:24:25.504Z,8.49
2023-04-03T07:30:38.114Z,8.69
2023-04-03T07:36:29.393Z,8.88
2023-04-03T07:41:54.233Z,9.09
2023-04-03T07:47:18.233Z,9.17
2023-04-03T07:52:40.475Z,9.28
2023-04-03T07:58:02.143Z,9.53
2023-04-03T08:03:24.739Z,9.42
2023-04-03T08:08:49.841Z,9.68
2023-04-03T08:14:16.989Z,9.72
2023-04-03T08:19:40.507Z,10.25
2023-04-03T08:25:03.453Z,10.39
2023-04-03T08:30:26.133Z,10.38
2023-04-03T08:35:48.407Z,10.57
2023-04-03T08:41:20.999Z,10.58
2023-04-03T08:47:25.855Z,10.63
2023-04-03T08:52:52.214Z,10.81
2023-04-03T08:58:18.297Z,10.96
2023-04-03T09:03:42.820Z,11.32
2023-04-03T09:09:16.932Z,11.47
2023-04-03T09:14:45.570Z,11.72
2023-04-03T09:20:28.732Z,12.06
2023-04-03T09:25:52.751Z,12.15
2023-04-03T09:31:22.125Z,11.93
2023-04-03T09:36:54.842Z,12.13
2023-04-03T09:42:28.063Z,12.18
2023-04-03T09:47:50.394Z,12.18
2023-04-03T09:53:37.783Z,11.97
2023-04-03T09:59:05.760Z,12.17
2023-04-03T10:10:25.352Z,12.23
2023-04-03T10:16:03.407Z,12.36
2023-04-03T10:21:34.588Z,12.36
2023-04-03T10:27:14.771Z,12.39
2023-04-03T10:32:55.757Z,12.71
2023-04-03T10:38:28.669Z,12.73
2023-04-03T10:44:27.846Z,12.92
2023-04-03T10:50:03.923Z,13.06
2023-04-03T10:55:49.545Z,12.98
2023-04-03T11:01:16.390Z,12.96
2023-04-03T11:06:50.312Z,12.92
2023-04-03T11:12:16.712Z,13.10
2023-04-03T11:17:45.837Z,13.22
2023-04-03T11:23:08.029Z,13.37
2023-04-03T11:28:30.083Z,13.35
2023-04-03T11:34:15.360Z,13.62
2023-04-03T11:39:40.099Z,13.62
2023-04-03T11:45:31.464Z,13.60
2023-04-03T11:50:59.151Z,12.99
2023-04-03T11:56:32.110Z,12.94
2023-04-03T12:01:59.887Z,12.84
2023-04-03T12:07:22.798Z,13.07
2023-04-03T12:12:59.279Z,13.04
2023-04-03T12:18:44.246Z,13.28
2023-04-03T12:24:09.813Z,13.29
2023-04-03T12:29:35.342Z,13.36
2023-04-03T12:35:05.414Z,13.40
2023-04-03T12:40:58.788Z,13.32
2023-04-03T12:46:23.992Z,13.16
2023-04-03T12:51:48.421Z,13.13
2023-04-03T12:57:16.767Z,13.05
2023-04-03T13:02:43.912Z,12.99
2023-04-03T13:08:14.173Z,12.90
2023-04-03T13:13:44.727Z,12.64
2023-04-03T13:19:28.392Z,12.79
2023-04-03T13:24:59.048Z,12.64
2023-04-03T13:30:25.329Z,12.66
2023-04-03T13:35:58.312Z,12.70
2023-04-03T13:41:37.056Z,12.48
2023-04-03T13:47:18.627Z,12.46
2023-04-03T13:53:05.322Z,12.45
2023-04-03T13:58:30.198Z,12.32
2023-04-03T14:04:02.563Z,12.22
2023-04-03T14:09:27.784Z,12.13
2023-04-03T14:14:50.351Z,11.98
2023-04-03T14:20:19.585Z,11.96
2023-04-03T14:25:42.647Z,11.80
2023-04-03T14:31:05.560Z,11.59
2023-04-03T14:36:30.252Z,11.49
2023-04-03T14:41:52.682Z,11.27
2023-04-03T14:47:29.859Z,11.21
2023-04-03T14:52:58.280Z,11.07
2023-04-03T14:58:22.604Z,10.85
2023-04-03T15:03:45.113Z,10.75
2023-04-03T15:09:07.801Z,10.56
2023-04-03T15:14:36.639Z,10.43
2023-04-03T15:20:00.607Z,10.29
2023-04-03T15:25:23.109Z,10.01
2023-04-03T15:30:45.115Z,9.76
2023-04-03T15:36:17.197Z,9.50
2023-04-03T15:41:50.169Z,9.31
2023-04-03T15:47:12.643Z,9.13
2023-04-03T15:52:39.713Z,9.27
2023-04-03T15:58:07.584Z,8.94
2023-04-03T16:03:30.508Z,8.67
2023-04-03T16:08:59.549Z,8.60
2023-04-03T16:14:22.374Z,8.57
2023-04-03T16:19:58.415Z,8.47
2023-04-03T16:25:31.203Z,8.37
2023-04-03T16:30:55.558Z,8.36
2023-04-03T16:36:17.816Z,8.27
2023-04-03T16:41:40.310Z,8.24
2023-04-03T16:47:02.910Z,8.16
2023-04-03T16:52:25.518Z,8.11
2023-04-03T16:57:50.173Z,7.99
2023-04-03T17:03:15.736Z,7.87
2023-04-03T17:09:29.486Z,7.85
2023-04-03T17:14:57.480Z,7.73
2023-04-03T17:21:13.405Z,7.76
2023-04-03T17:26:37.965Z,7.63
2023-04-03T17:31:59.827Z,7.43
2023-04-03T17:37:22.077Z,7.32
2023-04-03T17:42:44.103Z,7.22
2023-04-03T17:48:06.485Z,7.09
2023-04-03T17:53:28.721Z,7.03
2023-04-03T17:58:51.941Z,6.94
2023-04-03T18:04:14.950Z,6.87
2023-04-03T18:09:37.597Z,6.77
2023-04-03T18:15:00.953Z,6.65
2023-04-03T18:20:27.309Z,6.55
2023-04-03T18:25:49.796Z,6.53
2023-04-03T18:31:16.225Z,6.31
2023-04-03T18:36:38.085Z,6.32
2023-04-03T18:42:07.045Z,6.18
2023-04-03T18:47:33.114Z,6.12
2023-04-03T18:52:58.285Z,5.97
2023-04-03T18:58:20.369Z,5.99
2023-04-03T19:03:42.507Z,5.94
2023-04-03T19:09:08.830Z,5.92
2023-04-03T19:14:31.030Z,5.86
2023-04-03T19:19:53.101Z,5.77
2023-04-03T19:25:15.233Z,5.72
2023-04-03T19:30:39.539Z,5.72
2023-04-03T19:36:02.135Z,5.74
2023-04-03T19:41:28.013Z,5.78
2023-04-03T19:46:50.950Z,5.92
2023-04-03T19:52:14.309Z,5.87
2023-04-03T19:57:36.841Z,5.92
2023-04-03T20:02:59.511Z,5.87
2023-04-03T20:08:22.106Z,6.05
2023-04-03T20:13:44.184Z,5.99
2023-04-03T20:19:07.726Z,5.91
2023-04-03T20:24:30.380Z,5.91
2023-04-03T20:29:52.510Z,5.83
2023-04-03T20:35:14.957Z,5.70
2023-04-03T20:40:38.353Z,5.69
2023-04-03T20:46:02.006Z,5.70
2023-04-03T20:51:25.113Z,5.66
2023-04-03T20:56:50.451Z,5.49
2023-04-03T21:02:13.341Z,5.50
2023-04-03T21:08:16.768Z,5.56
2023-04-03T21:14:20.059Z,5.52
2023-04-03T21:19:49.545Z,5.43
2023-04-03T21:25:22.689Z,5.40
2023-04-03T21:30:44.751Z,5.39
2023-04-03T21:36:07.194Z,5.27
2023-04-03T21:41:28.808Z,5.28
2023-04-03T21:46:54.919Z,5.36
2023-04-03T21:52:18.066Z,5.34
2023-04-03T21:57:39.770Z,5.30
2023-04-03T22:03:09.838Z,5.27
2023-04-03T22:08:32.464Z,5.32
2023-04-03T22:13:56.117Z,5.15
2023-04-03T22:19:18.229Z,5.11
2023-04-03T22:24:40.668Z,5.05
2023-04-03T22:30:04.846Z,5.05
2023-04-03T22:35:27.913Z,5.26
2023-04-03T22:41:00.588Z,5.24
2023-04-03T22:46:22.459Z,5.20
2023-04-03T22:51:44.767Z,5.15
2023-04-03T22:57:06.737Z,5.14
2023-04-03T23:02:28.663Z,5.16
2023-04-03T23:07:50.757Z,5.11
2023-04-03T23:13:12.724Z,5.03
2023-04-03T23:18:34.789Z,4.97
2023-04-03T23:23:56.787Z,4.87
2023-04-03T23:29:21.647Z,4.79
2023-04-03T23:34:46.704Z,4.58
2023-04-03T23:40:10.724Z,4.52
2023-04-03T23:45:36.413Z,4.61
2023-04-03T23:51:09.832Z,4.48
2023-04-03T23:56:33.155Z,4.46
